createdAt,value
2023-03-06T00:02:39.824Z,6.10
2023-03-06T00:07:43.300Z,5.50
2023-03-06T00:12:46.090Z,4.40
2023-03-06T00:17:48.850Z,3.50
2023-03-06T00:22:51.668Z,3.80
2023-03-06T00:27:54.638Z,5.90
2023-03-06T00:32:57.493Z,2.40
2023-03-06T00:38:00.629Z,6.70
2023-03-06T00:43:03.461Z,3.30
2023-03-06T00:48:06.565Z,6.60
2023-03-06T00:53:11.144Z,3.90
2023-03-06T00:58:14.323Z,4.40
2023-03-06T01:03:17.138Z,6.80
2023-03-06T01:08:19.864Z,3.10
2023-03-06T01:13:22.690Z,3.90
2023-03-06T01:18:25.423Z,4.40
2023-03-06T01:23:28.427Z,5.40
2023-03-06T01:28:31.582Z,6.10
2023-03-06T01:33:35.035Z,4.50
2023-03-06T01:38:37.964Z,3.90
2023-03-06T01:43:44.348Z,4.80
2023-03-06T01:48:48.852Z,3.00
2023-03-06T01:53:53.622Z,3.80
2023-03-06T01:58:59.295Z,4.10
2023-03-06T02:04:02.323Z,3.40
2023-03-06T02:09:06.841Z,4.90
2023-03-06T02:14:13.230Z,3.70
2023-03-06T02:19:47.005Z,4.50
2023-03-06T02:25:08.288Z,2.20
2023-03-06T02:30:15.310Z,2.70
2023-03-06T02:35:23.020Z,4.20
2023-03-06T02:40:26.407Z,4.80
2023-03-06T02:45:45.441Z,5.40
2023-03-06T02:50:49.123Z,3.90
2023-03-06T02:55:52.322Z,3.80
2023-03-06T03:00:55.092Z,3.60
2023-03-06T03:05:57.862Z,3.10
2023-03-06T03:11:01.564Z,2.60
2023-03-06T03:16:06.919Z,3.70
2023-03-06T03:21:11.763Z,2.60
2023-03-06T03:26:18.740Z,3.50
2023-03-06T03:31:21.731Z,4.70
2023-03-06T03:36:26.146Z,3.30
2023-03-06T03:41:28.982Z,2.90
2023-03-06T03:46:31.725Z,2.90
2023-03-06T03:51:34.544Z,2.70
2023-03-06T03:56:37.857Z,2.90
2023-03-06T04:01:40.669Z,3.30
2023-03-06T04:06:43.557Z,4.40
2023-03-06T04:11:46.234Z,3.10
2023-03-06T04:16:48.985Z,3.80
2023-03-06T04:21:51.758Z,3.40
2023-03-06T04:26:54.485Z,3.40
2023-03-06T04:31:57.258Z,3.60
2023-03-06T04:36:59.957Z,4.50
2023-03-06T04:42:02.718Z,5.20
2023-03-06T04:47:06.082Z,3.60
2023-03-06T04:52:09.184Z,2.90
2023-03-06T04:57:13.715Z,4.30
2023-03-06T05:02:17.716Z,4.20
2023-03-06T05:07:20.542Z,3.00
2023-03-06T05:12:23.749Z,3.10
2023-03-06T05:17:26.773Z,3.00
2023-03-06T05:22:29.469Z,4.30
2023-03-06T05:27:32.686Z,4.00
2023-03-06T05:32:36.015Z,5.00
2023-03-06T05:37:39.003Z,4.50
2023-03-06T05:42:42.309Z,5.00
2023-03-06T05:47:45.104Z,3.20
2023-03-06T05:52:47.867Z,5.30
2023-03-06T05:57:51.837Z,5.10
2023-03-06T06:02:54.661Z,5.90
2023-03-06T06:07:57.358Z,4.60
2023-03-06T06:13:00.456Z,5.30
2023-03-06T06:18:03.208Z,5.20
2023-03-06T06:23:05.980Z,4.30
2023-03-06T06:28:08.739Z,6.10
2023-03-06T06:33:11.431Z,6.10
2023-03-06T06:38:14.506Z,5.50
2023-03-06T06:43:17.267Z,5.80
2023-03-06T06:48:20.054Z,5.40
2023-03-06T06:53:23.203Z,5.30
2023-03-06T06:58:26.802Z,6.40
2023-03-06T07:03:29.611Z,4.80
2023-03-06T07:08:33.087Z,5.00
2023-03-06T07:13:36.548Z,6.10
2023-03-06T07:18:39.659Z,5.60
2023-03-06T07:23:42.476Z,5.60
2023-03-06T07:28:52.434Z,5.50
2023-03-06T07:33:56.243Z,5.10
2023-03-06T07:38:59.049Z,5.20
2023-03-06T07:44:02.397Z,5.80
2023-03-06T07:49:05.277Z,6.40
2023-03-06T07:54:08.041Z,5.60
2023-03-06T07:59:11.783Z,10.00
2023-03-06T08:04:14.533Z,9.60
2023-03-06T08:09:17.380Z,8.40
2023-03-06T08:14:20.109Z,8.10
2023-03-06T08:19:22.940Z,6.90
2023-03-06T08:24:26.605Z,8.80
2023-03-06T08:29:31.032Z,6.90
2023-03-06T08:34:34.987Z,6.50
2023-03-06T08:39:37.756Z,5.50
2023-03-06T08:44:40.493Z,4.60
2023-03-06T08:49:43.407Z,5.10
2023-03-06T08:54:46.774Z,4.30
2023-03-06T08:59:49.508Z,4.40
2023-03-06T09:04:52.308Z,7.00
2023-03-06T09:09:58.270Z,5.90
2023-03-06T09:15:03.850Z,6.40
2023-03-06T09:20:10.485Z,6.70
2023-03-06T09:25:18.281Z,5.10
2023-03-06T09:30:21.166Z,3.30
2023-03-06T09:35:23.964Z,3.80
2023-03-06T09:40:45.923Z,3.60
2023-03-06T09:45:48.699Z,3.90
2023-03-06T09:50:58.837Z,3.50
2023-03-06T09:56:24.517Z,3.30
2023-03-06T10:01:33.120Z,2.50
2023-03-06T10:06:55.925Z,2.30
2023-03-06T10:12:06.832Z,2.40
2023-03-06T10:17:18.030Z,2.80
2023-03-06T10:22:26.401Z,2.30
2023-03-06T10:27:49.106Z,3.00
2023-03-06T10:32:59.335Z,3.10
2023-03-06T10:38:21.102Z,2.50
2023-03-06T10:43:23.930Z,1.80
2023-03-06T10:48:29.668Z,2.40
2023-03-06T10:53:33.116Z,2.10
2023-03-06T10:58:35.952Z,2.50
2023-03-06T11:03:38.703Z,2.60
2023-03-06T11:08:44.646Z,2.80
2023-03-06T11:13:57.569Z,3.00
2023-03-06T11:19:07.194Z,1.80
2023-03-06T11:24:20.070Z,1.70
2023-03-06T11:29:30.261Z,2.10
2023-03-06T11:34:59.589Z,2.70
2023-03-06T11:40:11.576Z,2.10
2023-03-06T11:45:34.872Z,4.30
2023-03-06T11:50:46.137Z,2.10
2023-03-06T11:56:05.366Z,2.70
2023-03-06T12:01:45.743Z,2.50
2023-03-06T12:07:07.810Z,1.90
2023-03-06T12:12:38.555Z,2.40
2023-03-06T12:18:08.166Z,2.30
2023-03-06T12:23:16.919Z,2.20
2023-03-06T12:28:28.195Z,2.50
2023-03-06T12:33:41.292Z,2.20
2023-03-06T12:38:53.071Z,2.10
2023-03-06T12:44:23.764Z,2.20
2023-03-06T12:49:32.383Z,2.50
2023-03-06T12:54:39.880Z,2.20
2023-03-06T12:59:48.567Z,2.20
2023-03-06T13:05:03.659Z,2.10
2023-03-06T13:10:09.197Z,2.60
2023-03-06T13:15:42.913Z,2.60
2023-03-06T13:20:46.235Z,2.70
2023-03-06T13:25:50.609Z,3.00
2023-03-06T13:30:53.586Z,2.50
2023-03-06T13:35:58.601Z,3.40
2023-03-06T13:41:23.750Z,3.70
2023-03-06T13:46:35.746Z,2.70
2023-03-06T13:51:41.260Z,3.30
2023-03-06T13:57:12.191Z,2.80
2023-03-06T14:02:30.249Z,3.00
2023-03-06T14:07:40.087Z,3.30
2023-03-06T14:13:00.308Z,3.50
2023-03-06T14:18:07.928Z,3.80
2023-03-06T14:23:23.471Z,3.60
2023-03-06T14:28:29.600Z,3.40
2023-03-06T14:33:55.111Z,3.20
2023-03-06T14:39:20.458Z,3.90
2023-03-06T14:44:26.657Z,3.80
2023-03-06T14:49:29.561Z,3.80
2023-03-06T14:54:37.017Z,4.10
2023-03-06T14:59:49.089Z,4.00
2023-03-06T15:05:20.670Z,5.30
2023-03-06T15:10:33.594Z,4.50
2023-03-06T15:15:36.415Z,4.70
2023-03-06T15:20:43.965Z,5.30
2023-03-06T15:26:13.835Z,5.30
2023-03-06T15:31:27.955Z,3.90
2023-03-06T15:36:34.180Z,4.80
2023-03-06T15:41:39.157Z,4.70
2023-03-06T15:46:42.458Z,3.40
2023-03-06T15:51:45.279Z,5.30
2023-03-06T15:56:49.824Z,4.70
2023-03-06T16:01:53.377Z,6.20
2023-03-06T16:06:56.364Z,4.70
2023-03-06T16:11:59.657Z,4.50
2023-03-06T16:17:02.692Z,7.30
2023-03-06T16:22:05.566Z,5.10
2023-03-06T16:27:16.592Z,7.50
2023-03-06T16:32:19.374Z,6.50
2023-03-06T16:37:22.258Z,8.80
2023-03-06T16:42:25.677Z,8.00
2023-03-06T16:47:28.390Z,9.10
2023-03-06T16:52:31.142Z,9.10
2023-03-06T16:57:35.830Z,7.20
2023-03-06T17:02:39.564Z,6.00
2023-03-06T17:07:42.638Z,8.00
2023-03-06T17:12:45.776Z,11.10
2023-03-06T17:17:48.988Z,8.70
2023-03-06T17:22:51.837Z,10.80
2023-03-06T17:27:54.542Z,10.40
2023-03-06T17:32:58.404Z,10.60
2023-03-06T17:38:01.212Z,12.80
2023-03-06T17:43:04.132Z,11.80
2023-03-06T17:48:06.915Z,11.40
2023-03-06T17:53:09.628Z,10.00
2023-03-06T17:58:12.618Z,11.60
2023-03-06T18:03:15.401Z,13.40
2023-03-06T18:08:18.245Z,11.00
2023-03-06T18:13:22.145Z,15.20
2023-03-06T18:18:25.764Z,12.70
2023-03-06T18:23:28.473Z,11.90
2023-03-06T18:28:31.141Z,12.80
2023-03-06T18:33:34.471Z,14.00
2023-03-06T18:38:39.763Z,7.20
2023-03-06T18:43:42.849Z,11.00
2023-03-06T18:48:45.620Z,11.70
2023-03-06T18:53:49.062Z,13.50
2023-03-06T18:58:52.401Z,11.50
2023-03-06T19:03:55.199Z,6.70
2023-03-06T19:09:02.250Z,7.40
2023-03-06T19:14:05.220Z,13.90
2023-03-06T19:19:08.299Z,12.50
2023-03-06T19:24:14.174Z,10.10
2023-03-06T19:29:16.874Z,9.70
2023-03-06T19:34:19.680Z,9.20
2023-03-06T19:39:22.620Z,10.00
2023-03-06T19:44:25.352Z,14.10
2023-03-06T19:49:28.007Z,12.80
2023-03-06T19:54:32.492Z,11.20
2023-03-06T19:59:35.944Z,13.60
2023-03-06T20:04:39.100Z,12.40
2023-03-06T20:09:41.875Z,16.70
2023-03-06T20:14:46.390Z,12.30
2023-03-06T20:19:49.189Z,10.60
2023-03-06T20:24:52.499Z,9.90
2023-03-06T20:29:55.300Z,11.20
2023-03-06T20:34:57.997Z,11.00
2023-03-06T20:40:00.797Z,9.10
2023-03-06T20:45:03.915Z,9.50
2023-03-06T20:50:07.614Z,11.90
2023-03-06T20:55:10.857Z,16.80
2023-03-06T21:00:14.530Z,16.20
2023-03-06T21:05:17.210Z,15.20
2023-03-06T21:10:19.891Z,13.00
2023-03-06T21:15:27.082Z,11.10
2023-03-06T21:20:30.481Z,11.60
2023-03-06T21:25:33.892Z,14.40
2023-03-06T21:30:36.620Z,15.20
2023-03-06T21:35:41.436Z,13.60
2023-03-06T21:40:45.522Z,13.70
2023-03-06T21:45:52.738Z,12.90
2023-03-06T21:51:08.510Z,11.30
2023-03-06T21:56:12.739Z,13.60
2023-03-06T22:01:22.316Z,14.30
2023-03-06T22:06:27.362Z,17.10
2023-03-06T22:11:37.218Z,13.40
2023-03-06T22:16:39.917Z,15.50
2023-03-06T22:21:42.673Z,12.40
2023-03-06T22:26:45.623Z,14.40
2023-03-06T22:31:48.338Z,14.40
2023-03-06T22:36:51.256Z,19.70
2023-03-06T22:41:56.882Z,21.10
2023-03-06T22:46:59.644Z,19.60
2023-03-06T22:52:02.384Z,16.20
2023-03-06T22:57:05.183Z,16.40
2023-03-06T23:02:08.226Z,13.30
2023-03-06T23:07:10.909Z,18.20
2023-03-06T23:12:13.699Z,18.20
2023-03-06T23:17:16.644Z,19.00
2023-03-06T23:22:19.814Z,18.10
2023-03-06T23:27:22.738Z,14.80
2023-03-06T23:32:25.644Z,15.70
2023-03-06T23:37:28.424Z,14.00
2023-03-06T23:42:31.150Z,20.00
2023-03-06T23:47:34.538Z,24.00
2023-03-06T23:52:38.185Z,24.30
2023-03-06T23:57:40.862Z,17.80
